createdAt,value
2023-03-06T00:00:35.690Z,97156.38
2023-03-06T00:03:03.218Z,97166.66
2023-03-06T00:05:30.342Z,97159.06
2023-03-06T00:07:57.488Z,97152.69
2023-03-06T00:10:27.978Z,97150.69
2023-03-06T00:12:58.128Z,97159.75
2023-03-06T00:15:29.170Z,97158.97
2023-03-06T00:17:57.548Z,97145.25
2023-03-06T00:20:25.967Z,97146.94
2023-03-06T00:22:53.102Z,97148.41
2023-03-06T00:25:21.192Z,97147.69
2023-03-06T00:27:48.829Z,97143.50
2023-03-06T00:30:18.983Z,97146.47
2023-03-06T00:32:46.442Z,97136.91
2023-03-06T00:35:13.942Z,97136.91
2023-03-06T00:37:41.527Z,97136.66
2023-03-06T00:40:11.304Z,97136.16
2023-03-06T00:42:38.343Z,97135.19
2023-03-06T00:45:06.829Z,97132.00
2023-03-06T00:47:33.885Z,97122.19
2023-03-06T00:50:00.913Z,97125.16
2023-03-06T00:52:28.069Z,97115.09
2023-03-06T00:54:55.310Z,97110.94
2023-03-06T00:57:22.465Z,97116.31
2023-03-06T00:59:49.863Z,97120.28
2023-03-06T01:02:17.963Z,97112.94
2023-03-06T01:04:45.326Z,97111.97
2023-03-06T01:07:12.781Z,97111.28
2023-03-06T01:09:39.994Z,97112.50
2023-03-06T01:12:08.461Z,97102.47
2023-03-06T01:14:35.715Z,97095.59
2023-03-06T01:17:02.816Z,97103.44
2023-03-06T01:19:29.979Z,97092.41
2023-03-06T01:21:57.413Z,97090.22
2023-03-06T01:24:25.814Z,97093.44
2023-03-06T01:26:53.123Z,97090.00
2023-03-06T01:29:20.978Z,97080.69
2023-03-06T01:31:48.083Z,97088.78
2023-03-06T01:34:15.174Z,97082.41
2023-03-06T01:36:42.675Z,97078.19
2023-03-06T01:39:10.065Z,97074.28
2023-03-06T01:41:37.179Z,97076.22
2023-03-06T01:44:04.820Z,97076.72
2023-03-06T01:46:42.134Z,97068.09
2023-03-06T01:49:17.153Z,97063.44
2023-03-06T01:51:56.085Z,97060.50
2023-03-06T01:54:48.230Z,97058.03
2023-03-06T01:57:19.466Z,97055.31
2023-03-06T01:59:48.655Z,97053.13
2023-03-06T02:02:16.640Z,97049.69
2023-03-06T02:04:44.325Z,97050.91
2023-03-06T02:07:11.904Z,97053.59
2023-03-06T02:09:39.013Z,97043.56
2023-03-06T02:12:09.505Z,97039.16
2023-03-06T02:14:36.815Z,97042.63
2023-03-06T02:17:04.193Z,97037.97
2023-03-06T02:19:51.542Z,97034.03
2023-03-06T02:22:19.363Z,97032.09
2023-03-06T02:25:30.645Z,97028.66
2023-03-06T02:27:57.754Z,97035.00
2023-03-06T02:30:27.849Z,97025.19
2023-03-06T02:32:55.745Z,97024.94
2023-03-06T02:35:25.807Z,97025.16
2023-03-06T02:37:54.023Z,97020.00
2023-03-06T02:40:22.370Z,97021.72
2023-03-06T02:42:52.587Z,97017.31
2023-03-06T02:45:28.648Z,97016.28
2023-03-06T02:47:55.769Z,97013.53
2023-03-06T02:50:22.911Z,97015.97
2023-03-06T02:52:50.156Z,97012.50
2023-03-06T02:55:17.595Z,97000.97
2023-03-06T02:57:44.649Z,97014.44
2023-03-06T03:00:12.907Z,97007.75
2023-03-06T03:02:40.352Z,97004.31
2023-03-06T03:05:07.941Z,97006.25
2023-03-06T03:07:35.117Z,97005.00
2023-03-06T03:10:02.278Z,97003.53
2023-03-06T03:12:29.334Z,97005.50
2023-03-06T03:14:56.742Z,97002.56
2023-03-06T03:17:24.141Z,97002.56
2023-03-06T03:19:51.191Z,96995.66
2023-03-06T03:22:18.689Z,96993.41
2023-03-06T03:24:46.872Z,96998.78
2023-03-06T03:27:14.333Z,96988.72
2023-03-06T03:29:42.694Z,96994.53
2023-03-06T03:32:09.886Z,96985.94
2023-03-06T03:34:37.010Z,96979.81
2023-03-06T03:37:04.179Z,96983.72
2023-03-06T03:39:31.349Z,96979.59
2023-03-06T03:41:58.386Z,96978.13
2023-03-06T03:44:25.955Z,96979.06
2023-03-06T03:46:53.105Z,96981.25
2023-03-06T03:49:20.145Z,96972.66
2023-03-06T03:51:47.246Z,96978.03
2023-03-06T03:54:14.300Z,96979.25
2023-03-06T03:56:42.089Z,96967.50
2023-03-06T03:59:10.150Z,96957.66
2023-03-06T04:01:39.519Z,96969.16
2023-03-06T04:04:07.489Z,96962.84
2023-03-06T04:06:34.587Z,96964.31
2023-03-06T04:09:01.721Z,96969.72
2023-03-06T04:11:28.805Z,96963.09
2023-03-06T04:13:55.847Z,96962.84
2023-03-06T04:16:23.153Z,96955.25
2023-03-06T04:18:50.243Z,96954.53
2023-03-06T04:21:17.679Z,96949.59
2023-03-06T04:23:44.837Z,96946.59
2023-03-06T04:26:11.916Z,96933.69
2023-03-06T04:28:38.973Z,96940.06
2023-03-06T04:31:06.045Z,96943.03
2023-03-06T04:33:33.111Z,96941.06
2023-03-06T04:36:00.459Z,96932.53
2023-03-06T04:38:27.543Z,96925.91
2023-03-06T04:40:54.633Z,96927.09
2023-03-06T04:43:21.914Z,96925.63
2023-03-06T04:45:49.048Z,96920.22
2023-03-06T04:48:18.470Z,96927.09
2023-03-06T04:50:45.851Z,96921.41
2023-03-06T04:53:14.495Z,96917.50
2023-03-06T04:55:41.629Z,96915.81
2023-03-06T04:58:11.189Z,96913.13
2023-03-06T05:00:38.416Z,96908.00
2023-03-06T05:03:05.631Z,96906.78
2023-03-06T05:05:32.676Z,96904.34
2023-03-06T05:07:59.799Z,96899.22
2023-03-06T05:10:26.943Z,96903.88
2023-03-06T05:12:54.000Z,96899.50
2023-03-06T05:15:21.133Z,96898.75
2023-03-06T05:17:48.193Z,96888.47
2023-03-06T05:20:15.801Z,96895.78
2023-03-06T05:22:43.196Z,96889.59
2023-03-06T05:25:10.874Z,96893.25
2023-03-06T05:27:38.559Z,96882.50
2023-03-06T05:30:06.455Z,96884.72
2023-03-06T05:32:35.521Z,96872.78
2023-03-06T05:35:04.218Z,96871.81
2023-03-06T05:37:32.205Z,96869.16
2023-03-06T05:39:59.572Z,96864.78
2023-03-06T05:42:28.675Z,96865.75
2023-03-06T05:44:55.894Z,96873.56
2023-03-06T05:47:23.096Z,96874.84
2023-03-06T05:49:50.135Z,96872.16
2023-03-06T05:52:17.611Z,96877.59
2023-03-06T05:54:44.863Z,96869.53
2023-03-06T05:57:11.929Z,96869.75
2023-03-06T05:59:39.149Z,96865.59
2023-03-06T06:02:06.230Z,96867.06
2023-03-06T06:04:33.536Z,96865.84
2023-03-06T06:07:01.039Z,96870.78
2023-03-06T06:09:29.292Z,96865.41
2023-03-06T06:11:59.391Z,96860.47
2023-03-06T06:14:27.320Z,96862.22
2023-03-06T06:16:54.503Z,96861.47
2023-03-06T06:19:22.419Z,96855.13
2023-03-06T06:21:51.450Z,96854.88
2023-03-06T06:24:20.978Z,96858.06
2023-03-06T06:26:50.856Z,96861.97
2023-03-06T06:29:18.501Z,96850.47
2023-03-06T06:31:45.640Z,96849.97
2023-03-06T06:34:13.830Z,96850.97
2023-03-06T06:36:41.311Z,96845.09
2023-03-06T06:39:09.102Z,96849.50
2023-03-06T06:41:53.702Z,96852.00
2023-03-06T06:44:23.830Z,96853.22
2023-03-06T06:49:38.081Z,96853.25
2023-03-06T06:52:05.940Z,96852.03
2023-03-06T06:54:34.315Z,96843.94
2023-03-06T06:57:01.364Z,96840.56
2023-03-06T06:59:28.406Z,96843.00
2023-03-06T07:01:55.545Z,96846.44
2023-03-06T07:04:22.663Z,96848.91
2023-03-06T07:06:50.146Z,96839.59
2023-03-06T07:09:17.297Z,96838.16
2023-03-06T07:11:44.360Z,96831.31
2023-03-06T07:14:11.452Z,96823.25
2023-03-06T07:16:38.745Z,96829.63
2023-03-06T07:19:06.731Z,96830.13
2023-03-06T07:21:33.845Z,96836.00
2023-03-06T07:24:01.480Z,96834.78
2023-03-06T07:26:28.618Z,96828.19
2023-03-06T07:28:55.703Z,96832.84
2023-03-06T07:31:25.615Z,96833.59
2023-03-06T07:33:53.924Z,96839.97
2023-03-06T07:36:22.428Z,96838.78
2023-03-06T07:38:49.486Z,96841.97
2023-03-06T07:41:20.387Z,96835.09
2023-03-06T07:43:49.055Z,96838.53
2023-03-06T07:46:16.119Z,96837.06
2023-03-06T07:48:43.343Z,96844.69
2023-03-06T07:51:19.210Z,96848.38
2023-03-06T07:53:48.373Z,96850.06
2023-03-06T07:56:15.713Z,96847.88
2023-03-06T07:58:45.457Z,96839.53
2023-03-06T08:01:17.841Z,96843.94
2023-03-06T08:03:44.971Z,96847.16
2023-03-06T08:06:14.547Z,96846.91
2023-03-06T08:08:44.333Z,96846.44
2023-03-06T08:11:12.777Z,96840.28
2023-03-06T08:13:40.021Z,96846.41
2023-03-06T08:16:07.628Z,96850.81
2023-03-06T08:18:35.150Z,96852.78
2023-03-06T08:21:03.304Z,96847.63
2023-03-06T08:23:30.875Z,96845.91
2023-03-06T08:25:59.462Z,96844.69
2023-03-06T08:28:28.428Z,96847.13
2023-03-06T08:30:56.769Z,96849.09
2023-03-06T08:33:24.793Z,96848.34
2023-03-06T08:35:52.628Z,96849.31
2023-03-06T08:38:19.816Z,96844.19
2023-03-06T08:40:47.019Z,96843.19
2023-03-06T08:43:14.469Z,96848.56
2023-03-06T08:45:42.060Z,96832.81
2023-03-06T08:48:09.083Z,96844.56
2023-03-06T08:50:36.114Z,96842.31
2023-03-06T08:53:03.171Z,96843.75
2023-03-06T08:55:30.183Z,96842.75
2023-03-06T08:57:58.536Z,96844.94
2023-03-06T09:00:26.331Z,96845.16
2023-03-06T09:02:53.584Z,96855.53
2023-03-06T09:05:20.728Z,96851.59
2023-03-06T09:07:48.188Z,96857.25
2023-03-06T09:10:17.329Z,96850.38
2023-03-06T09:12:50.653Z,96850.09
2023-03-06T09:15:20.303Z,96850.56
2023-03-06T09:17:47.708Z,96848.06
2023-03-06T09:20:14.987Z,96845.59
2023-03-06T09:22:42.507Z,96849.81
2023-03-06T09:25:11.049Z,96850.28
2023-03-06T09:27:38.084Z,96851.78
2023-03-06T09:30:06.572Z,96855.22
2023-03-06T09:32:33.636Z,96851.81
2023-03-06T09:35:00.880Z,96850.56
2023-03-06T09:37:28.003Z,96853.53
2023-03-06T09:39:55.088Z,96850.78
2023-03-06T09:42:23.662Z,96851.50
2023-03-06T09:44:53.729Z,96857.84
2023-03-06T09:47:32.779Z,96854.31
2023-03-06T09:50:37.749Z,96847.66
2023-03-06T09:53:17.072Z,96854.31
2023-03-06T09:55:50.634Z,96851.09
2023-03-06T09:58:21.147Z,96857.75
2023-03-06T10:00:57.594Z,96850.13
2023-03-06T10:04:09.492Z,96856.31
2023-03-06T10:06:47.424Z,96846.94
2023-03-06T10:09:22.595Z,96840.53
2023-03-06T10:12:01.412Z,96841.75
2023-03-06T10:14:45.475Z,96847.19
2023-03-06T10:17:19.346Z,96842.03
2023-03-06T10:19:49.773Z,96842.22
2023-03-06T10:22:27.425Z,96835.81
2023-03-06T10:25:03.624Z,96835.31
2023-03-06T10:27:36.377Z,96843.22
2023-03-06T10:30:26.992Z,96839.84
2023-03-06T10:32:59.233Z,96839.88
2023-03-06T10:35:42.205Z,96837.91
2023-03-06T10:38:26.970Z,96835.94
2023-03-06T10:40:56.923Z,96833.53
2023-03-06T10:43:23.956Z,96823.94
2023-03-06T10:45:52.510Z,96828.97
2023-03-06T10:48:28.079Z,96829.38
2023-03-06T10:51:20.967Z,96821.22
2023-03-06T10:54:11.981Z,96819.56
2023-03-06T10:56:41.750Z,96828.59
2023-03-06T10:59:25.144Z,96817.28
2023-03-06T11:01:54.192Z,96820.22
2023-03-06T11:04:31.506Z,96820.50
2023-03-06T11:07:06.888Z,96820.31
2023-03-06T11:09:35.120Z,96809.75
2023-03-06T11:12:32.337Z,96811.78
2023-03-06T11:15:10.046Z,96804.94
2023-03-06T11:17:48.970Z,96813.50
2023-03-06T11:20:18.241Z,96811.03
2023-03-06T11:23:06.149Z,96816.44
2023-03-06T11:25:53.140Z,96793.06
2023-03-06T11:28:30.577Z,96794.03
2023-03-06T11:31:16.801Z,96794.91
2023-03-06T11:33:51.618Z,96789.69
2023-03-06T11:36:21.894Z,96793.59
2023-03-06T11:38:50.800Z,96792.84
2023-03-06T11:41:25.145Z,96789.16
2023-03-06T11:44:03.275Z,96782.94
2023-03-06T11:46:38.209Z,96783.63
2023-03-06T11:49:20.521Z,96778.72
2023-03-06T11:51:54.965Z,96775.28
2023-03-06T11:54:22.657Z,96780.91
2023-03-06T11:56:52.808Z,96776.31
2023-03-06T11:59:47.482Z,96773.72
2023-03-06T12:02:19.679Z,96767.47
2023-03-06T12:05:02.269Z,96771.00
2023-03-06T12:07:42.033Z,96769.31
2023-03-06T12:10:24.415Z,96769.13
2023-03-06T12:13:09.684Z,96767.34
2023-03-06T12:15:52.442Z,96766.63
2023-03-06T12:18:46.557Z,96766.09
2023-03-06T12:21:21.723Z,96767.41
2023-03-06T12:24:03.992Z,96776.22
2023-03-06T12:26:55.176Z,96776.16
2023-03-06T12:30:08.173Z,96766.06
2023-03-06T12:33:03.967Z,96758.47
2023-03-06T12:35:45.392Z,96759.22
2023-03-06T12:38:48.247Z,96752.03
2023-03-06T12:41:38.122Z,96745.16
2023-03-06T12:44:23.749Z,96739.91
2023-03-06T12:46:58.098Z,96744.16
2023-03-06T12:49:33.024Z,96732.59
2023-03-06T12:52:01.117Z,96730.69
2023-03-06T12:54:35.130Z,96732.06
2023-03-06T12:57:02.876Z,96739.63
2023-03-06T12:59:47.590Z,96732.22
2023-03-06T13:02:17.894Z,96727.09
2023-03-06T13:04:51.662Z,96721.44
2023-03-06T13:07:33.303Z,96717.00
2023-03-06T13:10:29.130Z,96721.91
2023-03-06T13:13:34.028Z,96712.78
2023-03-06T13:16:22.601Z,96719.88
2023-03-06T13:18:56.652Z,96732.44
2023-03-06T13:21:41.939Z,96727.22
2023-03-06T13:24:26.873Z,96725.53
2023-03-06T13:26:56.709Z,96724.09
2023-03-06T13:29:35.879Z,96731.72
2023-03-06T13:32:02.834Z,96723.59
2023-03-06T13:34:38.968Z,96728.63
2023-03-06T13:37:23.057Z,96723.28
2023-03-06T13:39:59.150Z,96730.22
2023-03-06T13:42:28.743Z,96726.59
2023-03-06T13:44:57.476Z,96724.25
2023-03-06T13:47:39.770Z,96709.56
2023-03-06T13:50:43.688Z,96713.03
2023-03-06T13:53:35.968Z,96720.44
2023-03-06T13:56:28.278Z,96717.34
2023-03-06T13:59:17.494Z,96719.59
2023-03-06T14:02:09.957Z,96722.81
2023-03-06T14:04:45.757Z,96732.00
2023-03-06T14:07:24.892Z,96731.19
2023-03-06T14:10:01.549Z,96729.13
2023-03-06T14:12:37.188Z,96730.97
2023-03-06T14:15:16.557Z,96721.53
2023-03-06T14:17:57.978Z,96723.81
2023-03-06T14:20:33.651Z,96726.03
2023-03-06T14:23:42.168Z,96724.78
2023-03-06T14:26:24.571Z,96729.91
2023-03-06T14:28:59.974Z,96724.47
2023-03-06T14:31:32.752Z,96727.47
2023-03-06T14:34:01.956Z,96719.81
2023-03-06T14:36:36.010Z,96728.59
2023-03-06T14:39:12.200Z,96728.31
2023-03-06T14:41:39.727Z,96723.09
2023-03-06T14:44:19.445Z,96719.63
2023-03-06T14:46:51.697Z,96715.66
2023-03-06T14:49:20.281Z,96719.91
2023-03-06T14:51:52.986Z,96716.97
2023-03-06T14:54:21.948Z,96725.59
2023-03-06T14:56:52.993Z,96720.19
2023-03-06T14:59:26.706Z,96716.66
2023-03-06T15:01:59.408Z,96720.38
2023-03-06T15:04:36.836Z,96720.63
2023-03-06T15:07:15.160Z,96729.53
2023-03-06T15:09:48.895Z,96727.34
2023-03-06T15:12:19.663Z,96727.06
2023-03-06T15:15:01.678Z,96728.50
2023-03-06T15:17:39.807Z,96722.91
2023-03-06T15:20:08.319Z,96725.13
2023-03-06T15:22:37.929Z,96715.31
2023-03-06T15:25:26.754Z,96721.25
2023-03-06T15:27:55.452Z,96711.19
2023-03-06T15:30:34.347Z,96722.00
2023-03-06T15:33:11.627Z,96719.56
2023-03-06T15:35:38.871Z,96725.75
2023-03-06T15:38:23.773Z,96724.06
2023-03-06T15:40:56.417Z,96727.72
2023-03-06T15:43:24.160Z,96728.22
2023-03-06T15:45:55.654Z,96728.94
2023-03-06T15:48:22.748Z,96728.91
2023-03-06T15:50:49.939Z,96724.19
2023-03-06T15:53:16.989Z,96739.13
2023-03-06T15:55:44.133Z,96742.81
2023-03-06T15:58:15.835Z,96740.25
2023-03-06T16:00:44.273Z,96750.91
2023-03-06T16:03:12.033Z,96756.19
2023-03-06T16:05:39.215Z,96756.75
2023-03-06T16:08:06.653Z,96759.00
2023-03-06T16:10:36.131Z,96761.75
2023-03-06T16:13:06.345Z,96755.91
2023-03-06T16:15:38.497Z,96760.81
2023-03-06T16:18:06.303Z,96762.06
2023-03-06T16:20:36.599Z,96753.22
2023-03-06T16:23:07.978Z,96751.03
2023-03-06T16:25:35.093Z,96747.38
2023-03-06T16:28:03.213Z,96746.88
2023-03-06T16:30:32.262Z,96753.75
2023-03-06T16:32:59.826Z,96746.41
2023-03-06T16:35:27.346Z,96751.78
2023-03-06T16:37:54.541Z,96744.44
2023-03-06T16:40:30.370Z,96749.81
2023-03-06T16:42:57.594Z,96747.13
2023-03-06T16:45:24.670Z,96750.06
2023-03-06T16:47:51.861Z,96745.91
2023-03-06T16:50:31.403Z,96745.41
2023-03-06T16:52:58.984Z,96740.28
2023-03-06T16:55:27.148Z,96740.28
2023-03-06T16:57:54.709Z,96746.13
2023-03-06T17:00:24.605Z,96743.69
2023-03-06T17:02:52.289Z,96746.63
2023-03-06T17:05:19.675Z,96748.13
2023-03-06T17:07:47.087Z,96752.03
2023-03-06T17:10:15.764Z,96757.91
2023-03-06T17:12:43.455Z,96762.81
2023-03-06T17:15:11.737Z,96760.59
2023-03-06T17:17:39.125Z,96765.50
2023-03-06T17:20:08.261Z,96767.97
2023-03-06T17:22:36.252Z,96763.56
2023-03-06T17:25:06.771Z,96762.34
2023-03-06T17:27:34.698Z,96762.81
2023-03-06T17:30:02.059Z,96758.66
2023-03-06T17:32:29.171Z,96769.91
2023-03-06T17:34:56.462Z,96767.00
2023-03-06T17:37:23.596Z,96773.34
2023-03-06T17:39:50.722Z,96771.66
2023-03-06T17:42:17.815Z,96777.53
2023-03-06T17:44:44.846Z,96776.53
2023-03-06T17:47:12.097Z,96772.84
2023-03-06T17:49:39.337Z,96779.72
2023-03-06T17:52:06.593Z,96772.34
2023-03-06T17:54:34.044Z,96776.53
2023-03-06T17:57:03.749Z,96778.72
2023-03-06T17:59:34.498Z,96781.69
2023-03-06T18:02:06.534Z,96775.56
2023-03-06T18:04:34.192Z,96776.03
2023-03-06T18:07:01.279Z,96778.97
2023-03-06T18:09:28.379Z,96778.72
2023-03-06T18:11:55.692Z,96781.69
2023-03-06T18:14:22.999Z,96780.22
2023-03-06T18:16:50.177Z,96784.41
2023-03-06T18:19:18.015Z,96793.97
2023-03-06T18:21:47.943Z,96790.50
2023-03-06T18:24:15.245Z,96795.91
2023-03-06T18:26:42.648Z,96791.00
2023-03-06T18:29:09.823Z,96798.84
2023-03-06T18:31:38.925Z,96798.84
2023-03-06T18:34:14.162Z,96798.34
2023-03-06T18:36:43.501Z,96804.25
2023-03-06T18:39:12.051Z,96806.94
2023-03-06T18:41:39.408Z,96803.75
2023-03-06T18:44:06.721Z,96804.47
2023-03-06T18:46:36.350Z,96800.56
2023-03-06T18:49:03.953Z,96801.31
2023-03-06T18:51:31.402Z,96790.28
2023-03-06T18:53:59.813Z,96791.25
2023-03-06T18:56:27.406Z,96786.09
2023-03-06T18:58:55.565Z,96795.88
2023-03-06T19:01:23.266Z,96785.59
2023-03-06T19:03:50.424Z,96786.78
2023-03-06T19:06:17.951Z,96791.19
2023-03-06T19:08:45.154Z,96777.47
2023-03-06T19:11:14.884Z,96797.81
2023-03-06T19:13:42.230Z,96798.06
2023-03-06T19:16:16.163Z,96793.16
2023-03-06T19:18:43.260Z,96792.88
2023-03-06T19:21:12.717Z,96794.63
2023-03-06T19:23:40.051Z,96797.06
2023-03-06T19:26:07.669Z,96801.50
2023-03-06T19:28:36.615Z,96796.34
2023-03-06T19:31:25.077Z,96796.84
2023-03-06T19:33:53.436Z,96793.91
2023-03-06T19:36:23.656Z,96797.13
2023-03-06T19:38:53.989Z,96806.66
2023-03-06T19:41:21.103Z,96801.50
2023-03-06T19:43:54.293Z,96797.56
2023-03-06T19:46:22.630Z,96792.44
2023-03-06T19:48:54.760Z,96792.69
2023-03-06T19:51:21.914Z,96790.72
2023-03-06T19:53:49.096Z,96790.00
2023-03-06T19:56:20.798Z,96790.22
2023-03-06T19:58:48.300Z,96790.72
2023-03-06T20:01:17.862Z,96789.72
2023-03-06T20:03:45.871Z,96788.75
2023-03-06T20:06:15.809Z,96782.13
2023-03-06T20:08:43.688Z,96782.13
2023-03-06T20:11:29.820Z,96777.00
2023-03-06T20:13:58.265Z,96771.34
2023-03-06T20:16:28.013Z,96775.53
2023-03-06T20:18:58.072Z,96775.53
2023-03-06T20:21:26.389Z,96779.19
2023-03-06T20:23:54.901Z,96770.59
2023-03-06T20:26:22.929Z,96767.19
2023-03-06T20:28:50.056Z,96767.91
2023-03-06T20:31:21.953Z,96767.19
2023-03-06T20:33:51.235Z,96766.94
2023-03-06T20:36:28.716Z,96764.97
2023-03-06T20:38:57.560Z,96767.91
2023-03-06T20:41:26.148Z,96759.84
2023-03-06T20:43:53.767Z,96761.53
2023-03-06T20:46:22.069Z,96764.22
2023-03-06T20:48:50.792Z,96764.22
2023-03-06T20:51:24.801Z,96756.66
2023-03-06T20:53:55.639Z,96756.66
2023-03-06T20:56:25.504Z,96752.72
2023-03-06T20:58:53.034Z,96749.28
2023-03-06T21:01:25.234Z,96750.03
2023-03-06T21:03:52.904Z,96751.75
2023-03-06T21:06:20.746Z,96746.63
2023-03-06T21:08:47.939Z,96750.53
2023-03-06T21:11:16.403Z,96748.81
2023-03-06T21:13:43.906Z,96750.06
2023-03-06T21:16:13.148Z,96741.47
2023-03-06T21:18:40.467Z,96745.66
2023-03-06T21:21:16.669Z,96737.56
2023-03-06T21:23:44.272Z,96738.03
2023-03-06T21:26:16.304Z,96739.53
2023-03-06T21:28:43.755Z,96738.03
2023-03-06T21:31:12.944Z,96739.28
2023-03-06T21:33:40.103Z,96732.66
2023-03-06T21:36:07.682Z,96731.44
2023-03-06T21:38:35.271Z,96735.84
2023-03-06T21:41:15.884Z,96733.41
2023-03-06T21:43:43.243Z,96725.31
2023-03-06T21:46:10.712Z,96729.47
2023-03-06T21:48:38.088Z,96725.31
2023-03-06T21:51:13.241Z,96725.06
2023-03-06T21:53:44.006Z,96717.00
2023-03-06T21:56:12.278Z,96720.66
2023-03-06T21:58:40.070Z,96714.53
2023-03-06T22:01:24.171Z,96716.00
2023-03-06T22:03:51.454Z,96714.03
2023-03-06T22:06:20.866Z,96710.59
2023-03-06T22:08:48.061Z,96706.97
2023-03-06T22:11:19.856Z,96711.84
2023-03-06T22:13:48.025Z,96702.03
2023-03-06T22:16:15.947Z,96702.28
2023-03-06T22:18:50.061Z,96700.34
2023-03-06T22:21:18.637Z,96696.69
2023-03-06T22:23:50.088Z,96695.44
2023-03-06T22:26:17.179Z,96689.06
2023-03-06T22:28:44.887Z,96680.00
2023-03-06T22:31:17.770Z,96690.06
2023-03-06T22:33:45.206Z,96682.72
2023-03-06T22:36:15.824Z,96685.13
2023-03-06T22:38:44.423Z,96676.81
2023-03-06T22:41:12.988Z,96675.59
2023-03-06T22:43:40.061Z,96673.16
2023-03-06T22:46:12.630Z,96672.91
2023-03-06T22:48:40.057Z,96668.97
2023-03-06T22:51:10.053Z,96665.06
2023-03-06T22:53:37.637Z,96656.00
2023-03-06T22:56:07.675Z,96665.81
2023-03-06T22:58:37.081Z,96657.72
2023-03-06T23:01:09.782Z,96650.13
2023-03-06T23:03:43.124Z,96654.75
2023-03-06T23:06:13.088Z,96651.59
2023-03-06T23:08:40.858Z,96642.28
2023-03-06T23:11:14.039Z,96652.81
2023-03-06T23:13:41.199Z,96652.06
2023-03-06T23:16:09.334Z,96647.91
2023-03-06T23:18:37.604Z,96647.44
2023-03-06T23:21:12.065Z,96641.81
2023-03-06T23:23:39.792Z,96643.50
2023-03-06T23:26:08.262Z,96641.03
2023-03-06T23:28:35.346Z,96643.50
2023-03-06T23:31:14.370Z,96634.41
2023-03-06T23:33:41.661Z,96632.94
2023-03-06T23:36:10.984Z,96631.50
2023-03-06T23:38:38.591Z,96637.13
2023-03-06T23:41:08.177Z,96644.22
2023-03-06T23:43:35.282Z,96630.50
2023-03-06T23:46:02.964Z,96621.72
2023-03-06T23:48:30.074Z,96625.88
2023-03-06T23:50:57.288Z,96621.22
2023-03-06T23:53:24.672Z,96619.25
2023-03-06T23:55:52.014Z,96617.03
2023-03-06T23:58:19.487Z,96607.97
